sensor_id;sensor_type;location;lat;lon;timestamp;temperature;humidity
44647;DHT22;56315;-33.902;151.160;2022-10-17T00:01:28;17.20;99.90
44647;DHT22;56315;-33.902;151.160;2022-10-17T00:03:54;17.30;99.90
44647;DHT22;56315;-33.902;151.160;2022-10-17T00:06:21;17.60;99.90
44647;DHT22;56315;-33.902;151.160;2022-10-17T00:08:48;17.80;99.90
44647;DHT22;56315;-33.902;151.160;2022-10-17T00:11:16;17.90;99.90
44647;DHT22;56315;-33.902;151.160;2022-10-17T00:13:43;18.20;99.90
44647;DHT22;56315;-33.902;151.160;2022-10-17T00:16:10;18.30;99.90
44647;DHT22;56315;-33.902;151.160;2022-10-17T00:18:37;18.60;99.90
44647;DHT22;56315;-33.902;151.160;2022-10-17T00:21:03;18.70;99.90
44647;DHT22;56315;-33.902;151.160;2022-10-17T00:23:30;18.90;99.90
44647;DHT22;56315;-33.902;151.160;2022-10-17T00:26:03;19.10;99.90
44647;DHT22;56315;-33.902;151.160;2022-10-17T00:28:30;19.30;99.90
44647;DHT22;56315;-33.902;151.160;2022-10-17T00:30:57;19.50;99.90
44647;DHT22;56315;-33.902;151.160;2022-10-17T00:33:25;19.80;99.90
44647;DHT22;56315;-33.902;151.160;2022-10-17T00:36:02;20.00;99.90
44647;DHT22;56315;-33.902;151.160;2022-10-17T00:38:29;20.00;99.90
44647;DHT22;56315;-33.902;151.160;2022-10-17T00:40:55;20.00;99.90
44647;DHT22;56315;-33.902;151.160;2022-10-17T00:43:22;19.80;99.90
44647;DHT22;56315;-33.902;151.160;2022-10-17T00:45:49;19.60;99.90
44647;DHT22;56315;-33.902;151.160;2022-10-17T00:48:15;19.50;99.90
44647;DHT22;56315;-33.902;151.160;2022-10-17T00:50:43;19.50;99.90
44647;DHT22;56315;-33.902;151.160;2022-10-17T00:53:11;19.50;99.90
44647;DHT22;56315;-33.902;151.160;2022-10-17T00:55:43;19.50;99.90
44647;DHT22;56315;-33.902;151.160;2022-10-17T00:58:10;19.50;99.90
44647;DHT22;56315;-33.902;151.160;2022-10-17T01:00:37;19.40;99.90
44647;DHT22;56315;-33.902;151.160;2022-10-17T01:03:03;19.40;99.90
44647;DHT22;56315;-33.902;151.160;2022-10-17T01:05:30;19.30;99.90
44647;DHT22;56315;-33.902;151.160;2022-10-17T01:07:57;19.10;99.90
44647;DHT22;56315;-33.902;151.160;2022-10-17T01:10:26;19.00;99.90
44647;DHT22;56315;-33.902;151.160;2022-10-17T01:12:58;19.00;99.90
44647;DHT22;56315;-33.902;151.160;2022-10-17T01:31:11;19.20;99.90
44647;DHT22;56315;-33.902;151.160;2022-10-17T01:38:43;19.40;99.90
44647;DHT22;56315;-33.902;151.160;2022-10-17T01:43:54;19.40;99.90
44647;DHT22;56315;-33.902;151.160;2022-10-17T01:46:35;19.40;99.90
44647;DHT22;56315;-33.902;151.160;2022-10-17T01:49:03;19.50;99.90
44647;DHT22;56315;-33.902;151.160;2022-10-17T01:51:32;19.50;99.90
44647;DHT22;56315;-33.902;151.160;2022-10-17T01:54:02;19.50;99.90
44647;DHT22;56315;-33.902;151.160;2022-10-17T01:56:30;19.60;99.90
44647;DHT22;56315;-33.902;151.160;2022-10-17T01:59:19;19.80;99.90
44647;DHT22;56315;-33.902;151.160;2022-10-17T02:01:45;19.80;99.90
44647;DHT22;56315;-33.902;151.160;2022-10-17T02:04:12;19.90;99.90
44647;DHT22;56315;-33.902;151.160;2022-10-17T02:06:41;20.00;99.90
44647;DHT22;56315;-33.902;151.160;2022-10-17T02:09:18;20.10;99.90
44647;DHT22;56315;-33.902;151.160;2022-10-17T02:11:54;20.00;99.90
44647;DHT22;56315;-33.902;151.160;2022-10-17T02:17:03;20.30;99.90
44647;DHT22;56315;-33.902;151.160;2022-10-17T02:30:07;21.20;99.90
44647;DHT22;56315;-33.902;151.160;2022-10-17T02:35:12;21.40;99.90
44647;DHT22;56315;-33.902;151.160;2022-10-17T02:37:39;21.50;99.90
44647;DHT22;56315;-33.902;151.160;2022-10-17T02:40:07;21.40;99.90
44647;DHT22;56315;-33.902;151.160;2022-10-17T02:42:35;21.40;99.90
44647;DHT22;56315;-33.902;151.160;2022-10-17T02:45:03;21.30;99.90
44647;DHT22;56315;-33.902;151.160;2022-10-17T02:47:45;21.40;99.90
44647;DHT22;56315;-33.902;151.160;2022-10-17T02:50:13;21.30;99.90
44647;DHT22;56315;-33.902;151.160;2022-10-17T02:55:17;21.30;99.90
44647;DHT22;56315;-33.902;151.160;2022-10-17T02:57:47;21.30;99.90
44647;DHT22;56315;-33.902;151.160;2022-10-17T03:00:15;21.20;99.90
44647;DHT22;56315;-33.902;151.160;2022-10-17T03:02:43;21.10;99.90
44647;DHT22;56315;-33.902;151.160;2022-10-17T03:05:11;21.10;99.90
44647;DHT22;56315;-33.902;151.160;2022-10-17T03:07:38;21.10;99.90
44647;DHT22;56315;-33.902;151.160;2022-10-17T03:10:05;21.10;99.90
44647;DHT22;56315;-33.902;151.160;2022-10-17T03:12:32;21.00;99.90
44647;DHT22;56315;-33.902;151.160;2022-10-17T03:14:58;20.70;99.90
44647;DHT22;56315;-33.902;151.160;2022-10-17T03:17:25;20.60;99.90
44647;DHT22;56315;-33.902;151.160;2022-10-17T03:19:52;20.30;99.90
44647;DHT22;56315;-33.902;151.160;2022-10-17T03:22:18;20.10;99.90
44647;DHT22;56315;-33.902;151.160;2022-10-17T03:24:45;19.90;99.90
44647;DHT22;56315;-33.902;151.160;2022-10-17T03:27:12;19.80;99.90
44647;DHT22;56315;-33.902;151.160;2022-10-17T03:29:38;19.70;99.90
44647;DHT22;56315;-33.902;151.160;2022-10-17T03:32:05;19.70;99.90
44647;DHT22;56315;-33.902;151.160;2022-10-17T03:34:32;19.70;99.90
44647;DHT22;56315;-33.902;151.160;2022-10-17T03:36:58;19.70;99.90
44647;DHT22;56315;-33.902;151.160;2022-10-17T03:39:25;19.60;99.90
44647;DHT22;56315;-33.902;151.160;2022-10-17T03:41:52;19.70;99.90
44647;DHT22;56315;-33.902;151.160;2022-10-17T03:44:18;19.80;99.90
44647;DHT22;56315;-33.902;151.160;2022-10-17T03:46:45;19.90;99.90
44647;DHT22;56315;-33.902;151.160;2022-10-17T03:49:11;20.00;99.90
44647;DHT22;56315;-33.902;151.160;2022-10-17T03:51:38;20.30;99.90
44647;DHT22;56315;-33.902;151.160;2022-10-17T03:54:05;20.70;99.90
44647;DHT22;56315;-33.902;151.160;2022-10-17T03:56:31;20.90;99.90
44647;DHT22;56315;-33.902;151.160;2022-10-17T03:58:58;20.90;99.90
44647;DHT22;56315;-33.902;151.160;2022-10-17T04:01:25;20.80;99.90
44647;DHT22;56315;-33.902;151.160;2022-10-17T04:03:52;20.80;99.90
44647;DHT22;56315;-33.902;151.160;2022-10-17T04:06:19;20.70;99.90
44647;DHT22;56315;-33.902;151.160;2022-10-17T04:08:46;20.70;99.90
44647;DHT22;56315;-33.902;151.160;2022-10-17T04:11:14;20.50;99.90
44647;DHT22;56315;-33.902;151.160;2022-10-17T04:13:42;20.50;99.90
44647;DHT22;56315;-33.902;151.160;2022-10-17T04:16:13;20.30;99.90
44647;DHT22;56315;-33.902;151.160;2022-10-17T04:18:40;20.40;99.90
44647;DHT22;56315;-33.902;151.160;2022-10-17T04:21:07;20.50;99.90
44647;DHT22;56315;-33.902;151.160;2022-10-17T04:23:34;20.50;99.90
44647;DHT22;56315;-33.902;151.160;2022-10-17T04:26:01;20.40;99.90
44647;DHT22;56315;-33.902;151.160;2022-10-17T04:28:29;20.40;99.90
44647;DHT22;56315;-33.902;151.160;2022-10-17T04:30:59;20.30;99.90
44647;DHT22;56315;-33.902;151.160;2022-10-17T04:33:26;20.20;99.90
44647;DHT22;56315;-33.902;151.160;2022-10-17T04:36:08;20.00;99.90
44647;DHT22;56315;-33.902;151.160;2022-10-17T04:38:35;19.90;99.90
44647;DHT22;56315;-33.902;151.160;2022-10-17T04:41:03;19.90;99.90
44647;DHT22;56315;-33.902;151.160;2022-10-17T04:43:34;20.00;99.90
44647;DHT22;56315;-33.902;151.160;2022-10-17T04:46:01;20.00;99.90
44647;DHT22;56315;-33.902;151.160;2022-10-17T04:48:28;20.00;99.90
44647;DHT22;56315;-33.902;151.160;2022-10-17T04:50:56;19.90;99.90
44647;DHT22;56315;-33.902;151.160;2022-10-17T04:53:23;19.90;99.90
44647;DHT22;56315;-33.902;151.160;2022-10-17T04:55:50;19.80;99.90
44647;DHT22;56315;-33.902;151.160;2022-10-17T04:58:17;19.80;99.90
44647;DHT22;56315;-33.902;151.160;2022-10-17T05:00:44;19.70;99.90
44647;DHT22;56315;-33.902;151.160;2022-10-17T05:03:11;19.70;99.90
44647;DHT22;56315;-33.902;151.160;2022-10-17T05:05:38;19.60;99.90
44647;DHT22;56315;-33.902;151.160;2022-10-17T05:08:07;19.70;99.90
44647;DHT22;56315;-33.902;151.160;2022-10-17T05:10:35;19.60;99.90
44647;DHT22;56315;-33.902;151.160;2022-10-17T05:13:02;19.80;99.90
44647;DHT22;56315;-33.902;151.160;2022-10-17T05:15:29;19.80;99.90
44647;DHT22;56315;-33.902;151.160;2022-10-17T05:17:55;19.90;99.90
44647;DHT22;56315;-33.902;151.160;2022-10-17T05:20:23;19.90;99.90
44647;DHT22;56315;-33.902;151.160;2022-10-17T05:22:49;19.90;99.90
44647;DHT22;56315;-33.902;151.160;2022-10-17T05:28:19;19.70;99.90
44647;DHT22;56315;-33.902;151.160;2022-10-17T05:30:46;19.60;99.90
44647;DHT22;56315;-33.902;151.160;2022-10-17T05:33:12;19.60;99.90
44647;DHT22;56315;-33.902;151.160;2022-10-17T05:35:39;19.70;99.90
44647;DHT22;56315;-33.902;151.160;2022-10-17T05:38:06;19.70;99.90
44647;DHT22;56315;-33.902;151.160;2022-10-17T05:40:33;19.80;99.90
44647;DHT22;56315;-33.902;151.160;2022-10-17T05:42:59;19.70;99.90
44647;DHT22;56315;-33.902;151.160;2022-10-17T05:45:26;19.80;99.90
44647;DHT22;56315;-33.902;151.160;2022-10-17T05:47:53;19.80;99.90
44647;DHT22;56315;-33.902;151.160;2022-10-17T05:50:19;19.80;99.90
44647;DHT22;56315;-33.902;151.160;2022-10-17T05:52:46;19.80;99.90
44647;DHT22;56315;-33.902;151.160;2022-10-17T05:55:13;19.70;99.90
44647;DHT22;56315;-33.902;151.160;2022-10-17T05:57:40;19.60;99.90
44647;DHT22;56315;-33.902;151.160;2022-10-17T06:00:07;19.50;99.90
44647;DHT22;56315;-33.902;151.160;2022-10-17T06:02:34;19.40;99.90
44647;DHT22;56315;-33.902;151.160;2022-10-17T06:05:01;19.30;99.90
44647;DHT22;56315;-33.902;151.160;2022-10-17T06:07:28;19.30;99.90
44647;DHT22;56315;-33.902;151.160;2022-10-17T06:09:54;19.30;99.90
44647;DHT22;56315;-33.902;151.160;2022-10-17T06:12:22;19.20;99.90
44647;DHT22;56315;-33.902;151.160;2022-10-17T06:14:49;19.10;99.90
44647;DHT22;56315;-33.902;151.160;2022-10-17T06:17:16;19.10;99.90
44647;DHT22;56315;-33.902;151.160;2022-10-17T06:19:43;19.00;99.90
44647;DHT22;56315;-33.902;151.160;2022-10-17T06:22:09;19.00;99.90
44647;DHT22;56315;-33.902;151.160;2022-10-17T06:24:36;19.00;99.90
44647;DHT22;56315;-33.902;151.160;2022-10-17T06:27:03;19.00;99.90
44647;DHT22;56315;-33.902;151.160;2022-10-17T06:29:29;19.00;99.90
44647;DHT22;56315;-33.902;151.160;2022-10-17T06:31:56;19.00;99.90
44647;DHT22;56315;-33.902;151.160;2022-10-17T06:34:23;19.00;99.90
44647;DHT22;56315;-33.902;151.160;2022-10-17T06:36:49;19.00;99.90
44647;DHT22;56315;-33.902;151.160;2022-10-17T06:39:16;19.00;99.90
44647;DHT22;56315;-33.902;151.160;2022-10-17T06:41:42;19.00;99.90
44647;DHT22;56315;-33.902;151.160;2022-10-17T06:44:09;19.00;99.90
44647;DHT22;56315;-33.902;151.160;2022-10-17T06:46:37;18.90;99.90
44647;DHT22;56315;-33.902;151.160;2022-10-17T06:49:03;18.90;99.90
44647;DHT22;56315;-33.902;151.160;2022-10-17T06:51:30;18.90;99.90
44647;DHT22;56315;-33.902;151.160;2022-10-17T06:53:58;18.80;99.90
44647;DHT22;56315;-33.902;151.160;2022-10-17T06:56:25;18.80;99.90
44647;DHT22;56315;-33.902;151.160;2022-10-17T06:58:52;18.70;99.90
44647;DHT22;56315;-33.902;151.160;2022-10-17T07:01:19;18.60;99.90
44647;DHT22;56315;-33.902;151.160;2022-10-17T07:03:46;18.50;99.90
44647;DHT22;56315;-33.902;151.160;2022-10-17T07:06:14;18.40;99.90
44647;DHT22;56315;-33.902;151.160;2022-10-17T07:08:43;18.30;99.90
44647;DHT22;56315;-33.902;151.160;2022-10-17T07:11:10;18.20;99.90
44647;DHT22;56315;-33.902;151.160;2022-10-17T07:13:38;18.20;99.90
44647;DHT22;56315;-33.902;151.160;2022-10-17T07:16:04;18.20;99.90
44647;DHT22;56315;-33.902;151.160;2022-10-17T07:18:31;18.20;99.90
44647;DHT22;56315;-33.902;151.160;2022-10-17T07:20:58;18.10;99.90
44647;DHT22;56315;-33.902;151.160;2022-10-17T07:23:25;18.10;99.90
44647;DHT22;56315;-33.902;151.160;2022-10-17T07:25:52;18.10;99.90
44647;DHT22;56315;-33.902;151.160;2022-10-17T07:28:18;18.10;99.90
44647;DHT22;56315;-33.902;151.160;2022-10-17T07:30:45;18.00;99.90
44647;DHT22;56315;-33.902;151.160;2022-10-17T07:33:12;18.00;99.90
44647;DHT22;56315;-33.902;151.160;2022-10-17T07:35:38;18.00;99.90
44647;DHT22;56315;-33.902;151.160;2022-10-17T07:38:08;17.90;99.90
44647;DHT22;56315;-33.902;151.160;2022-10-17T07:40:34;17.80;99.90
44647;DHT22;56315;-33.902;151.160;2022-10-17T07:43:01;17.80;99.90
44647;DHT22;56315;-33.902;151.160;2022-10-17T07:45:28;17.70;99.90
44647;DHT22;56315;-33.902;151.160;2022-10-17T07:47:55;17.60;99.90
44647;DHT22;56315;-33.902;151.160;2022-10-17T07:50:22;17.60;99.90
44647;DHT22;56315;-33.902;151.160;2022-10-17T07:52:49;17.50;99.90
44647;DHT22;56315;-33.902;151.160;2022-10-17T07:55:16;17.50;99.90
44647;DHT22;56315;-33.902;151.160;2022-10-17T07:57:42;17.50;99.90
44647;DHT22;56315;-33.902;151.160;2022-10-17T08:00:09;17.40;99.90
44647;DHT22;56315;-33.902;151.160;2022-10-17T08:02:36;17.40;99.90
44647;DHT22;56315;-33.902;151.160;2022-10-17T08:05:03;17.40;99.90
44647;DHT22;56315;-33.902;151.160;2022-10-17T08:07:29;17.40;99.90
44647;DHT22;56315;-33.902;151.160;2022-10-17T08:09:56;17.30;99.90
44647;DHT22;56315;-33.902;151.160;2022-10-17T08:12:23;17.20;99.90
44647;DHT22;56315;-33.902;151.160;2022-10-17T08:14:50;17.10;99.90
44647;DHT22;56315;-33.902;151.160;2022-10-17T08:17:17;17.10;99.90
44647;DHT22;56315;-33.902;151.160;2022-10-17T08:19:43;17.10;99.90
44647;DHT22;56315;-33.902;151.160;2022-10-17T08:22:10;17.10;99.90
44647;DHT22;56315;-33.902;151.160;2022-10-17T08:24:37;17.10;99.90
44647;DHT22;56315;-33.902;151.160;2022-10-17T08:27:03;17.10;99.90
44647;DHT22;56315;-33.902;151.160;2022-10-17T08:29:39;17.10;99.90
44647;DHT22;56315;-33.902;151.160;2022-10-17T08:32:06;17.00;99.90
44647;DHT22;56315;-33.902;151.160;2022-10-17T08:34:34;16.90;99.90
44647;DHT22;56315;-33.902;151.160;2022-10-17T08:37:00;16.90;99.90
44647;DHT22;56315;-33.902;151.160;2022-10-17T08:39:27;16.90;99.90
44647;DHT22;56315;-33.902;151.160;2022-10-17T08:47:18;16.80;99.90
44647;DHT22;56315;-33.902;151.160;2022-10-17T08:49:50;16.70;99.90
44647;DHT22;56315;-33.902;151.160;2022-10-17T08:54:45;16.70;99.90
44647;DHT22;56315;-33.902;151.160;2022-10-17T08:57:13;16.70;99.90
44647;DHT22;56315;-33.902;151.160;2022-10-17T08:59:41;16.60;99.90
44647;DHT22;56315;-33.902;151.160;2022-10-17T09:02:16;16.70;99.90
44647;DHT22;56315;-33.902;151.160;2022-10-17T09:07:30;16.70;99.90
44647;DHT22;56315;-33.902;151.160;2022-10-17T09:15:23;16.80;99.90
44647;DHT22;56315;-33.902;151.160;2022-10-17T09:18:11;16.80;99.90
44647;DHT22;56315;-33.902;151.160;2022-10-17T09:20:45;16.80;99.90
44647;DHT22;56315;-33.902;151.160;2022-10-17T09:23:29;16.90;99.90
44647;DHT22;56315;-33.902;151.160;2022-10-17T09:25:58;16.90;99.90
44647;DHT22;56315;-33.902;151.160;2022-10-17T09:28:30;16.90;99.90
44647;DHT22;56315;-33.902;151.160;2022-10-17T09:31:02;16.90;99.90
44647;DHT22;56315;-33.902;151.160;2022-10-17T09:33:33;16.90;99.90
44647;DHT22;56315;-33.902;151.160;2022-10-17T09:36:03;17.00;99.90
44647;DHT22;56315;-33.902;151.160;2022-10-17T09:38:39;17.00;99.90
44647;DHT22;56315;-33.902;151.160;2022-10-17T09:41:12;17.00;99.90
44647;DHT22;56315;-33.902;151.160;2022-10-17T09:43:39;17.00;99.90
44647;DHT22;56315;-33.902;151.160;2022-10-17T09:48:49;17.10;99.90
44647;DHT22;56315;-33.902;151.160;2022-10-17T09:51:17;17.10;99.90
44647;DHT22;56315;-33.902;151.160;2022-10-17T09:53:46;17.10;99.90
44647;DHT22;56315;-33.902;151.160;2022-10-17T09:56:15;17.10;99.90
44647;DHT22;56315;-33.902;151.160;2022-10-17T09:58:42;17.20;99.90
44647;DHT22;56315;-33.902;151.160;2022-10-17T10:01:20;17.20;99.90
44647;DHT22;56315;-33.902;151.160;2022-10-17T10:03:48;17.20;99.90
44647;DHT22;56315;-33.902;151.160;2022-10-17T10:06:16;17.20;99.90
44647;DHT22;56315;-33.902;151.160;2022-10-17T10:09:19;17.30;99.90
44647;DHT22;56315;-33.902;151.160;2022-10-17T10:11:54;17.30;99.90
44647;DHT22;56315;-33.902;151.160;2022-10-17T10:14:31;17.30;99.90
44647;DHT22;56315;-33.902;151.160;2022-10-17T10:17:02;17.30;99.90
44647;DHT22;56315;-33.902;151.160;2022-10-17T10:19:35;17.20;99.90
44647;DHT22;56315;-33.902;151.160;2022-10-17T10:24:29;17.20;99.90
44647;DHT22;56315;-33.902;151.160;2022-10-17T10:26:57;17.20;99.90
44647;DHT22;56315;-33.902;151.160;2022-10-17T10:35:00;17.20;99.90
44647;DHT22;56315;-33.902;151.160;2022-10-17T10:37:29;17.20;99.90
44647;DHT22;56315;-33.902;151.160;2022-10-17T10:40:05;17.20;99.90
44647;DHT22;56315;-33.902;151.160;2022-10-17T10:42:33;17.20;99.90
44647;DHT22;56315;-33.902;151.160;2022-10-17T10:45:14;17.30;99.90
44647;DHT22;56315;-33.902;151.160;2022-10-17T10:47:48;17.30;99.90
44647;DHT22;56315;-33.902;151.160;2022-10-17T10:52:54;17.20;99.90
44647;DHT22;56315;-33.902;151.160;2022-10-17T10:55:25;17.10;99.90
44647;DHT22;56315;-33.902;151.160;2022-10-17T10:57:54;17.10;99.90
44647;DHT22;56315;-33.902;151.160;2022-10-17T11:00:23;17.10;99.90
44647;DHT22;56315;-33.902;151.160;2022-10-17T11:02:58;17.00;99.90
44647;DHT22;56315;-33.902;151.160;2022-10-17T11:07:54;17.00;99.90
44647;DHT22;56315;-33.902;151.160;2022-10-17T11:10:37;16.90;99.90
44647;DHT22;56315;-33.902;151.160;2022-10-17T11:13:39;16.90;99.90
44647;DHT22;56315;-33.902;151.160;2022-10-17T11:18:28;16.80;99.90
44647;DHT22;56315;-33.902;151.160;2022-10-17T11:21:00;16.80;99.90
44647;DHT22;56315;-33.902;151.160;2022-10-17T11:25:56;16.80;99.90
44647;DHT22;56315;-33.902;151.160;2022-10-17T11:28:24;16.70;99.90
44647;DHT22;56315;-33.902;151.160;2022-10-17T11:30:55;16.70;99.90
44647;DHT22;56315;-33.902;151.160;2022-10-17T11:33:25;16.70;99.90
44647;DHT22;56315;-33.902;151.160;2022-10-17T11:35:53;16.70;99.90
44647;DHT22;56315;-33.902;151.160;2022-10-17T11:38:29;16.60;99.90
44647;DHT22;56315;-33.902;151.160;2022-10-17T11:40:58;16.60;99.90
44647;DHT22;56315;-33.902;151.160;2022-10-17T11:45:56;16.40;99.90
44647;DHT22;56315;-33.902;151.160;2022-10-17T11:48:28;16.30;99.90
44647;DHT22;56315;-33.902;151.160;2022-10-17T11:51:12;16.30;99.90
44647;DHT22;56315;-33.902;151.160;2022-10-17T11:53:47;16.20;99.90
44647;DHT22;56315;-33.902;151.160;2022-10-17T11:56:16;16.20;99.90
44647;DHT22;56315;-33.902;151.160;2022-10-17T12:01:21;16.20;99.90
44647;DHT22;56315;-33.902;151.160;2022-10-17T12:04:00;16.20;99.90
44647;DHT22;56315;-33.902;151.160;2022-10-17T12:08:59;16.20;99.90
44647;DHT22;56315;-33.902;151.160;2022-10-17T12:17:00;16.20;99.90
44647;DHT22;56315;-33.902;151.160;2022-10-17T12:19:31;16.20;99.90
44647;DHT22;56315;-33.902;151.160;2022-10-17T12:22:01;16.10;99.90
44647;DHT22;56315;-33.902;151.160;2022-10-17T12:24:44;16.10;99.90
44647;DHT22;56315;-33.902;151.160;2022-10-17T12:30:23;16.00;99.90
44647;DHT22;56315;-33.902;151.160;2022-10-17T12:35:24;16.00;99.90
44647;DHT22;56315;-33.902;151.160;2022-10-17T12:45:47;16.00;99.90
44647;DHT22;56315;-33.902;151.160;2022-10-17T12:53:52;15.70;99.90
44647;DHT22;56315;-33.902;151.160;2022-10-17T12:56:16;15.70;99.90
44647;DHT22;56315;-33.902;151.160;2022-10-17T12:58:44;15.70;99.90
44647;DHT22;56315;-33.902;151.160;2022-10-17T13:01:16;15.70;99.90
44647;DHT22;56315;-33.902;151.160;2022-10-17T13:03:44;15.70;99.90
44647;DHT22;56315;-33.902;151.160;2022-10-17T13:06:18;15.60;99.90
44647;DHT22;56315;-33.902;151.160;2022-10-17T13:08:46;15.40;99.90
44647;DHT22;56315;-33.902;151.160;2022-10-17T13:11:14;15.30;99.90
44647;DHT22;56315;-33.902;151.160;2022-10-17T13:13:45;15.20;99.90
44647;DHT22;56315;-33.902;151.160;2022-10-17T13:18:58;15.10;99.90
44647;DHT22;56315;-33.902;151.160;2022-10-17T13:21:25;15.00;99.90
44647;DHT22;56315;-33.902;151.160;2022-10-17T13:23:52;14.90;99.90
44647;DHT22;56315;-33.902;151.160;2022-10-17T13:26:23;14.90;99.90
44647;DHT22;56315;-33.902;151.160;2022-10-17T13:29:03;14.70;99.90
44647;DHT22;56315;-33.902;151.160;2022-10-17T13:31:31;14.60;99.90
44647;DHT22;56315;-33.902;151.160;2022-10-17T13:33:59;14.60;99.90
44647;DHT22;56315;-33.902;151.160;2022-10-17T13:36:26;14.50;99.90
44647;DHT22;56315;-33.902;151.160;2022-10-17T13:38:54;14.40;99.90
44647;DHT22;56315;-33.902;151.160;2022-10-17T13:41:23;14.40;99.90
44647;DHT22;56315;-33.902;151.160;2022-10-17T13:43:50;14.30;99.90
44647;DHT22;56315;-33.902;151.160;2022-10-17T13:46:35;14.30;99.90
44647;DHT22;56315;-33.902;151.160;2022-10-17T13:51:57;14.20;99.90
44647;DHT22;56315;-33.902;151.160;2022-10-17T13:56:56;14.10;99.90
44647;DHT22;56315;-33.902;151.160;2022-10-17T13:59:30;14.10;99.90
44647;DHT22;56315;-33.902;151.160;2022-10-17T14:01:57;14.00;99.90
44647;DHT22;56315;-33.902;151.160;2022-10-17T14:04:26;13.90;99.90
44647;DHT22;56315;-33.902;151.160;2022-10-17T14:06:53;13.90;99.90
44647;DHT22;56315;-33.902;151.160;2022-10-17T14:09:21;13.80;99.90
44647;DHT22;56315;-33.902;151.160;2022-10-17T14:14:33;13.70;99.90
44647;DHT22;56315;-33.902;151.160;2022-10-17T14:17:00;13.70;99.90
44647;DHT22;56315;-33.902;151.160;2022-10-17T14:19:28;13.70;99.90
44647;DHT22;56315;-33.902;151.160;2022-10-17T14:22:13;13.70;99.90
44647;DHT22;56315;-33.902;151.160;2022-10-17T14:24:39;13.60;99.90
44647;DHT22;56315;-33.902;151.160;2022-10-17T14:29:52;13.70;99.90
44647;DHT22;56315;-33.902;151.160;2022-10-17T14:32:19;13.60;99.90
44647;DHT22;56315;-33.902;151.160;2022-10-17T14:34:46;13.60;99.90
44647;DHT22;56315;-33.902;151.160;2022-10-17T14:37:40;13.50;99.90
44647;DHT22;56315;-33.902;151.160;2022-10-17T14:40:04;13.50;99.90
44647;DHT22;56315;-33.902;151.160;2022-10-17T14:42:31;13.40;99.90
44647;DHT22;56315;-33.902;151.160;2022-10-17T14:45:07;13.30;99.90
44647;DHT22;56315;-33.902;151.160;2022-10-17T14:47:37;13.40;99.90
44647;DHT22;56315;-33.902;151.160;2022-10-17T14:50:05;13.30;99.90
44647;DHT22;56315;-33.902;151.160;2022-10-17T14:52:33;13.30;99.90
44647;DHT22;56315;-33.902;151.160;2022-10-17T14:55:11;13.30;99.90
44647;DHT22;56315;-33.902;151.160;2022-10-17T14:57:41;13.30;99.90
44647;DHT22;56315;-33.902;151.160;2022-10-17T15:00:12;13.20;99.90
44647;DHT22;56315;-33.902;151.160;2022-10-17T15:02:39;13.20;99.90
44647;DHT22;56315;-33.902;151.160;2022-10-17T15:05:06;13.20;99.90
44647;DHT22;56315;-33.902;151.160;2022-10-17T15:07:32;13.30;99.90
44647;DHT22;56315;-33.902;151.160;2022-10-17T15:09:59;13.30;99.90
44647;DHT22;56315;-33.902;151.160;2022-10-17T15:12:26;13.30;99.90
44647;DHT22;56315;-33.902;151.160;2022-10-17T15:14:52;13.30;99.90
44647;DHT22;56315;-33.902;151.160;2022-10-17T15:17:21;13.30;99.90
44647;DHT22;56315;-33.902;151.160;2022-10-17T15:19:49;13.40;99.90
44647;DHT22;56315;-33.902;151.160;2022-10-17T15:22:15;13.40;99.90
44647;DHT22;56315;-33.902;151.160;2022-10-17T15:24:52;13.50;99.90
44647;DHT22;56315;-33.902;151.160;2022-10-17T15:27:19;13.40;99.90
44647;DHT22;56315;-33.902;151.160;2022-10-17T15:29:46;13.40;99.90
44647;DHT22;56315;-33.902;151.160;2022-10-17T15:32:13;13.30;99.90
44647;DHT22;56315;-33.902;151.160;2022-10-17T15:34:40;13.30;99.90
44647;DHT22;56315;-33.902;151.160;2022-10-17T15:37:13;13.20;99.90
44647;DHT22;56315;-33.902;151.160;2022-10-17T15:39:41;13.20;99.90
44647;DHT22;56315;-33.902;151.160;2022-10-17T15:42:08;13.20;99.90
44647;DHT22;56315;-33.902;151.160;2022-10-17T15:44:36;13.20;99.90
44647;DHT22;56315;-33.902;151.160;2022-10-17T15:47:05;13.10;99.90
44647;DHT22;56315;-33.902;151.160;2022-10-17T15:49:32;13.10;99.90
44647;DHT22;56315;-33.902;151.160;2022-10-17T15:51:59;13.00;99.90
44647;DHT22;56315;-33.902;151.160;2022-10-17T15:54:26;13.00;99.90
44647;DHT22;56315;-33.902;151.160;2022-10-17T15:56:52;13.00;99.90
44647;DHT22;56315;-33.902;151.160;2022-10-17T15:59:23;13.00;99.90
44647;DHT22;56315;-33.902;151.160;2022-10-17T16:01:52;13.00;99.90
44647;DHT22;56315;-33.902;151.160;2022-10-17T16:04:18;13.00;99.90
44647;DHT22;56315;-33.902;151.160;2022-10-17T16:06:45;13.00;99.90
44647;DHT22;56315;-33.902;151.160;2022-10-17T16:09:12;13.00;99.90
44647;DHT22;56315;-33.902;151.160;2022-10-17T16:11:39;13.00;99.90
44647;DHT22;56315;-33.902;151.160;2022-10-17T16:14:08;12.90;99.90
44647;DHT22;56315;-33.902;151.160;2022-10-17T16:16:35;13.00;99.90
44647;DHT22;56315;-33.902;151.160;2022-10-17T16:22:05;12.90;99.90
44647;DHT22;56315;-33.902;151.160;2022-10-17T16:24:32;12.90;99.90
44647;DHT22;56315;-33.902;151.160;2022-10-17T16:26:58;12.90;99.90
44647;DHT22;56315;-33.902;151.160;2022-10-17T16:29:25;12.80;99.90
44647;DHT22;56315;-33.902;151.160;2022-10-17T16:31:51;12.80;99.90
44647;DHT22;56315;-33.902;151.160;2022-10-17T16:34:18;12.70;99.90
44647;DHT22;56315;-33.902;151.160;2022-10-17T16:36:45;12.70;99.90
44647;DHT22;56315;-33.902;151.160;2022-10-17T16:39:11;12.70;99.90
44647;DHT22;56315;-33.902;151.160;2022-10-17T16:41:38;12.70;99.90
44647;DHT22;56315;-33.902;151.160;2022-10-17T16:44:09;12.70;99.90
44647;DHT22;56315;-33.902;151.160;2022-10-17T16:46:39;12.70;99.90
44647;DHT22;56315;-33.902;151.160;2022-10-17T16:49:06;12.60;99.90
44647;DHT22;56315;-33.902;151.160;2022-10-17T16:51:33;12.60;99.90
44647;DHT22;56315;-33.902;151.160;2022-10-17T16:54:00;12.60;99.90
44647;DHT22;56315;-33.902;151.160;2022-10-17T16:56:27;12.50;99.90
44647;DHT22;56315;-33.902;151.160;2022-10-17T16:58:58;12.50;99.90
44647;DHT22;56315;-33.902;151.160;2022-10-17T17:01:25;12.50;99.90
44647;DHT22;56315;-33.902;151.160;2022-10-17T17:03:52;12.50;99.90
44647;DHT22;56315;-33.902;151.160;2022-10-17T17:06:19;12.50;99.90
44647;DHT22;56315;-33.902;151.160;2022-10-17T17:08:46;12.40;99.90